Aviation Digital Data Service (ADDS)

Output produced by METARs form (0913 UTC 06 July 2015)
found at http://www.aviationweather.gov/adds/metars/
 
KSPI 060903Z 0609/0706 18006KT 6SM HZ SKC 
     FM061100 16004KT 4SM HZ SKC 
     FM061400 18012KT P6SM SCT030 
     FM061900 19012G18KT P6SM SCT050 
     FM070200 19009KT P6SM VCTS BKN040CB